sensor_id;sensor_type;location;lat;lon;timestamp;P1;durP1;ratioP1;P2;durP2;ratioP2
36423;SDS011;22458;45.328;9.514;2023-03-01T00:01:09;21.35;;;16.50;;
36423;SDS011;22458;45.328;9.514;2023-03-01T00:03:36;21.95;;;15.80;;
36423;SDS011;22458;45.328;9.514;2023-03-01T00:06:02;20.45;;;16.02;;
36423;SDS011;22458;45.328;9.514;2023-03-01T00:08:29;20.67;;;15.27;;
36423;SDS011;22458;45.328;9.514;2023-03-01T00:11:15;24.17;;;17.52;;
36423;SDS011;22458;45.328;9.514;2023-03-01T00:13:46;22.33;;;16.38;;
36423;SDS011;22458;45.328;9.514;2023-03-01T00:16:14;20.30;;;15.27;;
36423;SDS011;22458;45.328;9.514;2023-03-01T00:18:47;23.35;;;17.50;;
36423;SDS011;22458;45.328;9.514;2023-03-01T00:21:13;19.90;;;15.27;;
36423;SDS011;22458;45.328;9.514;2023-03-01T00:23:39;18.13;;;14.43;;
36423;SDS011;22458;45.328;9.514;2023-03-01T00:26:06;23.58;;;15.52;;
36423;SDS011;22458;45.328;9.514;2023-03-01T00:31:04;21.63;;;15.35;;
36423;SDS011;22458;45.328;9.514;2023-03-01T00:33:34;22.52;;;16.77;;
36423;SDS011;22458;45.328;9.514;2023-03-01T00:36:00;21.17;;;16.13;;
36423;SDS011;22458;45.328;9.514;2023-03-01T00:38:27;21.92;;;15.07;;
36423;SDS011;22458;45.328;9.514;2023-03-01T00:40:53;22.02;;;15.63;;
36423;SDS011;22458;45.328;9.514;2023-03-01T00:43:20;20.52;;;14.55;;
36423;SDS011;22458;45.328;9.514;2023-03-01T00:45:46;22.70;;;16.58;;
36423;SDS011;22458;45.328;9.514;2023-03-01T00:48:12;24.02;;;16.85;;
36423;SDS011;22458;45.328;9.514;2023-03-01T00:50:38;23.67;;;17.58;;
36423;SDS011;22458;45.328;9.514;2023-03-01T00:53:04;22.15;;;15.95;;
36423;SDS011;22458;45.328;9.514;2023-03-01T00:55:30;22.30;;;16.33;;
36423;SDS011;22458;45.328;9.514;2023-03-01T00:57:56;19.75;;;15.25;;
36423;SDS011;22458;45.328;9.514;2023-03-01T01:00:21;22.83;;;16.13;;
36423;SDS011;22458;45.328;9.514;2023-03-01T01:02:47;20.80;;;15.90;;
36423;SDS011;22458;45.328;9.514;2023-03-01T01:05:15;22.20;;;16.50;;
36423;SDS011;22458;45.328;9.514;2023-03-01T01:07:46;23.08;;;16.60;;
36423;SDS011;22458;45.328;9.514;2023-03-01T01:10:13;24.88;;;17.67;;
36423;SDS011;22458;45.328;9.514;2023-03-01T01:12:43;24.98;;;18.23;;
36423;SDS011;22458;45.328;9.514;2023-03-01T01:15:10;24.40;;;17.83;;
36423;SDS011;22458;45.328;9.514;2023-03-01T01:17:38;23.40;;;16.83;;
36423;SDS011;22458;45.328;9.514;2023-03-01T01:20:03;23.52;;;16.67;;
36423;SDS011;22458;45.328;9.514;2023-03-01T01:22:30;25.02;;;18.05;;
36423;SDS011;22458;45.328;9.514;2023-03-01T01:24:55;23.02;;;16.80;;
36423;SDS011;22458;45.328;9.514;2023-03-01T01:27:21;26.42;;;20.05;;
36423;SDS011;22458;45.328;9.514;2023-03-01T01:29:47;22.05;;;17.45;;
36423;SDS011;22458;45.328;9.514;2023-03-01T01:32:13;25.67;;;18.00;;
36423;SDS011;22458;45.328;9.514;2023-03-01T01:34:39;25.67;;;16.98;;
36423;SDS011;22458;45.328;9.514;2023-03-01T01:37:04;26.95;;;19.25;;
36423;SDS011;22458;45.328;9.514;2023-03-01T01:39:33;24.20;;;17.23;;
36423;SDS011;22458;45.328;9.514;2023-03-01T01:42:02;26.02;;;18.80;;
36423;SDS011;22458;45.328;9.514;2023-03-01T01:44:28;27.25;;;18.95;;
36423;SDS011;22458;45.328;9.514;2023-03-01T01:46:56;25.75;;;18.60;;
36423;SDS011;22458;45.328;9.514;2023-03-01T01:49:29;29.00;;;20.48;;
36423;SDS011;22458;45.328;9.514;2023-03-01T01:52:09;28.00;;;18.73;;
36423;SDS011;22458;45.328;9.514;2023-03-01T01:54:39;27.25;;;18.92;;
36423;SDS011;22458;45.328;9.514;2023-03-01T01:57:13;26.55;;;18.83;;
36423;SDS011;22458;45.328;9.514;2023-03-01T01:59:43;25.02;;;18.08;;
36423;SDS011;22458;45.328;9.514;2023-03-01T02:02:14;29.00;;;18.77;;
36423;SDS011;22458;45.328;9.514;2023-03-01T02:04:40;27.92;;;19.67;;
36423;SDS011;22458;45.328;9.514;2023-03-01T02:07:09;26.02;;;20.15;;
36423;SDS011;22458;45.328;9.514;2023-03-01T02:09:42;25.45;;;17.83;;
36423;SDS011;22458;45.328;9.514;2023-03-01T02:12:11;26.33;;;18.27;;
36423;SDS011;22458;45.328;9.514;2023-03-01T02:14:38;25.85;;;18.42;;
36423;SDS011;22458;45.328;9.514;2023-03-01T02:17:04;25.83;;;17.70;;
36423;SDS011;22458;45.328;9.514;2023-03-01T02:19:33;28.00;;;17.63;;
36423;SDS011;22458;45.328;9.514;2023-03-01T02:22:18;25.65;;;18.38;;
36423;SDS011;22458;45.328;9.514;2023-03-01T02:27:33;24.45;;;18.15;;
36423;SDS011;22458;45.328;9.514;2023-03-01T02:30:05;23.73;;;18.48;;
36423;SDS011;22458;45.328;9.514;2023-03-01T02:32:33;26.08;;;17.83;;
36423;SDS011;22458;45.328;9.514;2023-03-01T02:34:59;24.67;;;17.30;;
36423;SDS011;22458;45.328;9.514;2023-03-01T02:37:25;27.50;;;18.67;;
36423;SDS011;22458;45.328;9.514;2023-03-01T02:39:57;26.50;;;17.63;;
36423;SDS011;22458;45.328;9.514;2023-03-01T02:42:31;28.60;;;19.58;;
36423;SDS011;22458;45.328;9.514;2023-03-01T02:45:02;22.90;;;17.60;;
36423;SDS011;22458;45.328;9.514;2023-03-01T02:47:28;25.73;;;18.15;;
36423;SDS011;22458;45.328;9.514;2023-03-01T02:49:54;24.67;;;18.42;;
36423;SDS011;22458;45.328;9.514;2023-03-01T02:55:03;23.13;;;17.42;;
36423;SDS011;22458;45.328;9.514;2023-03-01T02:57:35;25.98;;;18.52;;
36423;SDS011;22458;45.328;9.514;2023-03-01T03:00:05;26.67;;;18.48;;
36423;SDS011;22458;45.328;9.514;2023-03-01T03:02:36;26.38;;;17.83;;
36423;SDS011;22458;45.328;9.514;2023-03-01T03:07:35;26.48;;;18.73;;
36423;SDS011;22458;45.328;9.514;2023-03-01T03:10:03;28.10;;;18.33;;
36423;SDS011;22458;45.328;9.514;2023-03-01T03:12:31;22.40;;;16.77;;
36423;SDS011;22458;45.328;9.514;2023-03-01T03:14:57;25.65;;;18.45;;
36423;SDS011;22458;45.328;9.514;2023-03-01T03:17:23;24.60;;;18.17;;
36423;SDS011;22458;45.328;9.514;2023-03-01T03:19:49;22.98;;;16.48;;
36423;SDS011;22458;45.328;9.514;2023-03-01T03:22:15;25.10;;;18.50;;
36423;SDS011;22458;45.328;9.514;2023-03-01T03:24:40;23.80;;;18.15;;
36423;SDS011;22458;45.328;9.514;2023-03-01T03:27:06;24.63;;;18.50;;
36423;SDS011;22458;45.328;9.514;2023-03-01T03:29:32;23.90;;;17.48;;
36423;SDS011;22458;45.328;9.514;2023-03-01T03:31:58;25.05;;;18.13;;
36423;SDS011;22458;45.328;9.514;2023-03-01T03:34:24;24.70;;;17.73;;
36423;SDS011;22458;45.328;9.514;2023-03-01T03:36:56;23.48;;;17.42;;
36423;SDS011;22458;45.328;9.514;2023-03-01T03:39:25;26.65;;;17.63;;
36423;SDS011;22458;45.328;9.514;2023-03-01T03:41:52;25.42;;;19.02;;
36423;SDS011;22458;45.328;9.514;2023-03-01T03:44:19;23.00;;;17.75;;
36423;SDS011;22458;45.328;9.514;2023-03-01T03:46:45;24.55;;;17.88;;
36423;SDS011;22458;45.328;9.514;2023-03-01T03:49:11;26.13;;;18.63;;
36423;SDS011;22458;45.328;9.514;2023-03-01T03:51:37;25.42;;;17.38;;
36423;SDS011;22458;45.328;9.514;2023-03-01T03:54:02;26.27;;;17.60;;
36423;SDS011;22458;45.328;9.514;2023-03-01T03:56:28;23.42;;;17.08;;
36423;SDS011;22458;45.328;9.514;2023-03-01T03:58:54;24.63;;;18.08;;
36423;SDS011;22458;45.328;9.514;2023-03-01T04:01:20;24.65;;;17.33;;
36423;SDS011;22458;45.328;9.514;2023-03-01T04:03:45;25.23;;;18.52;;
36423;SDS011;22458;45.328;9.514;2023-03-01T04:06:12;23.85;;;17.77;;
36423;SDS011;22458;45.328;9.514;2023-03-01T04:08:38;27.05;;;17.98;;
36423;SDS011;22458;45.328;9.514;2023-03-01T04:11:05;26.80;;;18.60;;
36423;SDS011;22458;45.328;9.514;2023-03-01T04:13:49;24.38;;;17.38;;
36423;SDS011;22458;45.328;9.514;2023-03-01T04:16:16;27.98;;;17.70;;
36423;SDS011;22458;45.328;9.514;2023-03-01T04:18:42;22.98;;;17.02;;
36423;SDS011;22458;45.328;9.514;2023-03-01T04:21:09;25.33;;;18.17;;
36423;SDS011;22458;45.328;9.514;2023-03-01T04:23:36;24.85;;;17.38;;
36423;SDS011;22458;45.328;9.514;2023-03-01T04:26:02;24.67;;;16.95;;
36423;SDS011;22458;45.328;9.514;2023-03-01T04:28:29;22.52;;;16.55;;
36423;SDS011;22458;45.328;9.514;2023-03-01T04:31:01;23.17;;;17.23;;
36423;SDS011;22458;45.328;9.514;2023-03-01T04:33:38;24.23;;;16.73;;
36423;SDS011;22458;45.328;9.514;2023-03-01T04:36:05;25.95;;;17.33;;
36423;SDS011;22458;45.328;9.514;2023-03-01T04:38:34;25.02;;;17.13;;
36423;SDS011;22458;45.328;9.514;2023-03-01T04:41:02;25.95;;;18.40;;
36423;SDS011;22458;45.328;9.514;2023-03-01T04:43:29;25.20;;;18.23;;
36423;SDS011;22458;45.328;9.514;2023-03-01T04:45:59;25.45;;;17.05;;
36423;SDS011;22458;45.328;9.514;2023-03-01T04:48:29;24.65;;;16.50;;
36423;SDS011;22458;45.328;9.514;2023-03-01T04:50:57;25.40;;;16.23;;
36423;SDS011;22458;45.328;9.514;2023-03-01T04:53:23;25.65;;;17.17;;
36423;SDS011;22458;45.328;9.514;2023-03-01T04:55:50;20.02;;;15.73;;
36423;SDS011;22458;45.328;9.514;2023-03-01T04:58:16;24.00;;;17.52;;
36423;SDS011;22458;45.328;9.514;2023-03-01T05:00:41;25.05;;;16.95;;
36423;SDS011;22458;45.328;9.514;2023-03-01T05:03:07;22.85;;;17.45;;
36423;SDS011;22458;45.328;9.514;2023-03-01T05:05:34;24.40;;;16.52;;
36423;SDS011;22458;45.328;9.514;2023-03-01T05:08:03;24.27;;;16.40;;
36423;SDS011;22458;45.328;9.514;2023-03-01T05:10:34;26.50;;;18.70;;
36423;SDS011;22458;45.328;9.514;2023-03-01T05:13:01;22.35;;;16.60;;
36423;SDS011;22458;45.328;9.514;2023-03-01T05:15:29;23.55;;;15.77;;
36423;SDS011;22458;45.328;9.514;2023-03-01T05:17:56;25.67;;;16.67;;
36423;SDS011;22458;45.328;9.514;2023-03-01T05:20:24;23.38;;;16.30;;
36423;SDS011;22458;45.328;9.514;2023-03-01T05:22:51;26.73;;;17.30;;
36423;SDS011;22458;45.328;9.514;2023-03-01T05:25:19;24.35;;;16.88;;
36423;SDS011;22458;45.328;9.514;2023-03-01T05:27:46;25.23;;;16.98;;
36423;SDS011;22458;45.328;9.514;2023-03-01T05:30:12;25.23;;;17.75;;
36423;SDS011;22458;45.328;9.514;2023-03-01T05:35:09;28.85;;;18.40;;
36423;SDS011;22458;45.328;9.514;2023-03-01T05:37:39;27.80;;;18.25;;
36423;SDS011;22458;45.328;9.514;2023-03-01T05:40:10;25.27;;;17.98;;
36423;SDS011;22458;45.328;9.514;2023-03-01T05:42:44;27.55;;;17.13;;
36423;SDS011;22458;45.328;9.514;2023-03-01T05:45:11;25.02;;;15.75;;
36423;SDS011;22458;45.328;9.514;2023-03-01T05:47:38;25.08;;;17.00;;
36423;SDS011;22458;45.328;9.514;2023-03-01T05:50:09;24.63;;;16.75;;
36423;SDS011;22458;45.328;9.514;2023-03-01T05:52:38;23.38;;;17.50;;
36423;SDS011;22458;45.328;9.514;2023-03-01T05:55:05;24.23;;;16.98;;
36423;SDS011;22458;45.328;9.514;2023-03-01T05:57:31;22.40;;;17.05;;
36423;SDS011;22458;45.328;9.514;2023-03-01T05:59:57;24.92;;;16.77;;
36423;SDS011;22458;45.328;9.514;2023-03-01T06:02:23;26.80;;;17.20;;
36423;SDS011;22458;45.328;9.514;2023-03-01T06:04:48;25.00;;;16.80;;
36423;SDS011;22458;45.328;9.514;2023-03-01T06:07:14;22.95;;;16.60;;
36423;SDS011;22458;45.328;9.514;2023-03-01T06:09:40;24.73;;;16.70;;
36423;SDS011;22458;45.328;9.514;2023-03-01T06:12:06;24.45;;;16.25;;
36423;SDS011;22458;45.328;9.514;2023-03-01T06:14:31;28.27;;;18.83;;
36423;SDS011;22458;45.328;9.514;2023-03-01T06:16:57;24.05;;;17.08;;
36423;SDS011;22458;45.328;9.514;2023-03-01T06:19:23;23.88;;;16.88;;
36423;SDS011;22458;45.328;9.514;2023-03-01T06:21:49;22.73;;;17.25;;
36423;SDS011;22458;45.328;9.514;2023-03-01T06:24:14;23.48;;;17.52;;
36423;SDS011;22458;45.328;9.514;2023-03-01T06:26:40;28.02;;;18.55;;
36423;SDS011;22458;45.328;9.514;2023-03-01T06:29:06;22.23;;;16.63;;
36423;SDS011;22458;45.328;9.514;2023-03-01T06:31:33;27.30;;;17.90;;
36423;SDS011;22458;45.328;9.514;2023-03-01T06:33:59;25.83;;;17.92;;
36423;SDS011;22458;45.328;9.514;2023-03-01T06:36:25;24.17;;;18.13;;
36423;SDS011;22458;45.328;9.514;2023-03-01T06:38:51;30.77;;;19.95;;
36423;SDS011;22458;45.328;9.514;2023-03-01T06:41:17;27.00;;;18.23;;
36423;SDS011;22458;45.328;9.514;2023-03-01T06:43:42;27.45;;;18.83;;
36423;SDS011;22458;45.328;9.514;2023-03-01T06:46:08;24.80;;;16.90;;
36423;SDS011;22458;45.328;9.514;2023-03-01T06:48:34;26.13;;;17.23;;
36423;SDS011;22458;45.328;9.514;2023-03-01T06:51:00;24.40;;;18.13;;
36423;SDS011;22458;45.328;9.514;2023-03-01T06:53:26;30.13;;;19.55;;
36423;SDS011;22458;45.328;9.514;2023-03-01T06:55:56;25.33;;;17.13;;
36423;SDS011;22458;45.328;9.514;2023-03-01T06:58:24;25.80;;;17.35;;
36423;SDS011;22458;45.328;9.514;2023-03-01T07:00:50;21.85;;;17.08;;
36423;SDS011;22458;45.328;9.514;2023-03-01T07:03:15;25.08;;;17.83;;
36423;SDS011;22458;45.328;9.514;2023-03-01T07:05:41;26.50;;;17.50;;
36423;SDS011;22458;45.328;9.514;2023-03-01T07:08:07;24.55;;;16.70;;
36423;SDS011;22458;45.328;9.514;2023-03-01T07:10:32;25.05;;;17.25;;
36423;SDS011;22458;45.328;9.514;2023-03-01T07:12:58;30.00;;;19.23;;
36423;SDS011;22458;45.328;9.514;2023-03-01T07:15:25;26.33;;;17.65;;
36423;SDS011;22458;45.328;9.514;2023-03-01T07:17:51;24.95;;;17.50;;
36423;SDS011;22458;45.328;9.514;2023-03-01T07:20:18;27.08;;;18.30;;
36423;SDS011;22458;45.328;9.514;2023-03-01T07:22:44;29.67;;;17.98;;
36423;SDS011;22458;45.328;9.514;2023-03-01T07:25:10;23.45;;;17.17;;
36423;SDS011;22458;45.328;9.514;2023-03-01T07:27:36;23.50;;;17.42;;
36423;SDS011;22458;45.328;9.514;2023-03-01T07:30:02;27.10;;;18.73;;
36423;SDS011;22458;45.328;9.514;2023-03-01T07:32:28;29.95;;;19.73;;
36423;SDS011;22458;45.328;9.514;2023-03-01T07:34:54;28.67;;;18.27;;
36423;SDS011;22458;45.328;9.514;2023-03-01T07:37:20;27.05;;;18.35;;
36423;SDS011;22458;45.328;9.514;2023-03-01T07:39:45;27.60;;;19.80;;
36423;SDS011;22458;45.328;9.514;2023-03-01T07:42:11;26.05;;;18.42;;
36423;SDS011;22458;45.328;9.514;2023-03-01T07:44:37;26.08;;;17.20;;
36423;SDS011;22458;45.328;9.514;2023-03-01T07:47:03;27.23;;;17.58;;
36423;SDS011;22458;45.328;9.514;2023-03-01T07:49:29;25.42;;;18.13;;
36423;SDS011;22458;45.328;9.514;2023-03-01T07:51:55;26.80;;;17.10;;
36423;SDS011;22458;45.328;9.514;2023-03-01T07:54:21;27.15;;;18.83;;
36423;SDS011;22458;45.328;9.514;2023-03-01T07:56:47;23.88;;;17.02;;
36423;SDS011;22458;45.328;9.514;2023-03-01T07:59:12;24.90;;;17.67;;
36423;SDS011;22458;45.328;9.514;2023-03-01T08:01:38;26.88;;;17.45;;
36423;SDS011;22458;45.328;9.514;2023-03-01T08:04:04;31.92;;;19.08;;
36423;SDS011;22458;45.328;9.514;2023-03-01T08:06:33;26.30;;;17.98;;
36423;SDS011;22458;45.328;9.514;2023-03-01T08:09:00;29.85;;;18.75;;
36423;SDS011;22458;45.328;9.514;2023-03-01T08:11:25;25.10;;;17.00;;
36423;SDS011;22458;45.328;9.514;2023-03-01T08:13:53;23.58;;;16.10;;
36423;SDS011;22458;45.328;9.514;2023-03-01T08:16:19;27.05;;;17.40;;
36423;SDS011;22458;45.328;9.514;2023-03-01T08:18:45;24.60;;;16.65;;
36423;SDS011;22458;45.328;9.514;2023-03-01T08:21:12;22.75;;;16.60;;
36423;SDS011;22458;45.328;9.514;2023-03-01T08:23:40;23.43;;;16.80;;
36423;SDS011;22458;45.328;9.514;2023-03-01T08:26:11;28.45;;;17.48;;
36423;SDS011;22458;45.328;9.514;2023-03-01T08:28:39;21.85;;;16.42;;
36423;SDS011;22458;45.328;9.514;2023-03-01T08:31:19;32.28;;;21.35;;
36423;SDS011;22458;45.328;9.514;2023-03-01T08:33:51;30.67;;;21.30;;
36423;SDS011;22458;45.328;9.514;2023-03-01T08:36:24;24.00;;;16.10;;
36423;SDS011;22458;45.328;9.514;2023-03-01T08:38:52;26.08;;;16.90;;
36423;SDS011;22458;45.328;9.514;2023-03-01T08:41:18;26.90;;;16.13;;
36423;SDS011;22458;45.328;9.514;2023-03-01T08:43:44;25.63;;;17.17;;
36423;SDS011;22458;45.328;9.514;2023-03-01T08:46:10;23.30;;;15.88;;
36423;SDS011;22458;45.328;9.514;2023-03-01T08:48:36;23.10;;;15.93;;
36423;SDS011;22458;45.328;9.514;2023-03-01T08:53:35;23.48;;;15.35;;
36423;SDS011;22458;45.328;9.514;2023-03-01T08:56:01;19.75;;;14.73;;
36423;SDS011;22458;45.328;9.514;2023-03-01T08:58:28;21.65;;;15.05;;
36423;SDS011;22458;45.328;9.514;2023-03-01T09:00:54;22.92;;;15.70;;
36423;SDS011;22458;45.328;9.514;2023-03-01T09:03:23;18.02;;;13.10;;
36423;SDS011;22458;45.328;9.514;2023-03-01T09:05:50;19.77;;;12.30;;
36423;SDS011;22458;45.328;9.514;2023-03-01T09:08:17;17.55;;;12.05;;
36423;SDS011;22458;45.328;9.514;2023-03-01T09:10:43;16.33;;;11.60;;
36423;SDS011;22458;45.328;9.514;2023-03-01T09:13:09;16.65;;;11.25;;
36423;SDS011;22458;45.328;9.514;2023-03-01T09:15:38;16.17;;;10.57;;
36423;SDS011;22458;45.328;9.514;2023-03-01T09:18:05;16.20;;;10.60;;
36423;SDS011;22458;45.328;9.514;2023-03-01T09:20:31;16.75;;;11.35;;
36423;SDS011;22458;45.328;9.514;2023-03-01T09:22:57;15.05;;;10.32;;
36423;SDS011;22458;45.328;9.514;2023-03-01T09:25:23;15.50;;;10.88;;
36423;SDS011;22458;45.328;9.514;2023-03-01T09:27:52;14.82;;;10.82;;
36423;SDS011;22458;45.328;9.514;2023-03-01T09:30:19;12.57;;;8.98;;
36423;SDS011;22458;45.328;9.514;2023-03-01T09:32:46;15.88;;;10.27;;
36423;SDS011;22458;45.328;9.514;2023-03-01T09:35:12;14.55;;;10.02;;
36423;SDS011;22458;45.328;9.514;2023-03-01T09:37:38;13.27;;;9.68;;
36423;SDS011;22458;45.328;9.514;2023-03-01T09:40:17;15.32;;;10.75;;
36423;SDS011;22458;45.328;9.514;2023-03-01T09:48:02;15.32;;;10.05;;
36423;SDS011;22458;45.328;9.514;2023-03-01T09:50:38;12.55;;;9.85;;
36423;SDS011;22458;45.328;9.514;2023-03-01T10:01:10;16.50;;;9.05;;
36423;SDS011;22458;45.328;9.514;2023-03-01T10:03:59;15.40;;;9.77;;
36423;SDS011;22458;45.328;9.514;2023-03-01T10:06:35;12.75;;;8.80;;
36423;SDS011;22458;45.328;9.514;2023-03-01T10:09:02;12.70;;;9.20;;
36423;SDS011;22458;45.328;9.514;2023-03-01T10:11:37;12.13;;;8.85;;
36423;SDS011;22458;45.328;9.514;2023-03-01T10:14:27;14.82;;;9.50;;
36423;SDS011;22458;45.328;9.514;2023-03-01T10:22:39;14.85;;;9.20;;
36423;SDS011;22458;45.328;9.514;2023-03-01T10:25:04;14.02;;;9.20;;
36423;SDS011;22458;45.328;9.514;2023-03-01T10:27:34;12.07;;;9.45;;
36423;SDS011;22458;45.328;9.514;2023-03-01T10:32:45;11.45;;;8.27;;
36423;SDS011;22458;45.328;9.514;2023-03-01T10:35:18;14.02;;;9.23;;
36423;SDS011;22458;45.328;9.514;2023-03-01T10:37:56;11.35;;;8.48;;
36423;SDS011;22458;45.328;9.514;2023-03-01T10:40:30;13.20;;;8.68;;
36423;SDS011;22458;45.328;9.514;2023-03-01T10:43:01;12.82;;;9.40;;
36423;SDS011;22458;45.328;9.514;2023-03-01T10:45:37;14.13;;;10.23;;
36423;SDS011;22458;45.328;9.514;2023-03-01T10:50:34;13.43;;;9.52;;
36423;SDS011;22458;45.328;9.514;2023-03-01T10:53:05;13.95;;;10.10;;
36423;SDS011;22458;45.328;9.514;2023-03-01T10:55:56;12.40;;;10.13;;
36423;SDS011;22458;45.328;9.514;2023-03-01T10:58:26;14.05;;;10.52;;
36423;SDS011;22458;45.328;9.514;2023-03-01T11:06:00;15.95;;;10.73;;
36423;SDS011;22458;45.328;9.514;2023-03-01T11:08:33;17.38;;;11.15;;
36423;SDS011;22458;45.328;9.514;2023-03-01T11:13:39;15.77;;;10.90;;
36423;SDS011;22458;45.328;9.514;2023-03-01T11:16:25;17.13;;;11.60;;
36423;SDS011;22458;45.328;9.514;2023-03-01T11:18:58;18.52;;;12.50;;
36423;SDS011;22458;45.328;9.514;2023-03-01T11:24:46;19.08;;;11.85;;
36423;SDS011;22458;45.328;9.514;2023-03-01T11:30:00;18.02;;;11.95;;
36423;SDS011;22458;45.328;9.514;2023-03-01T11:32:36;19.88;;;12.45;;
36423;SDS011;22458;45.328;9.514;2023-03-01T11:35:24;18.02;;;12.27;;
36423;SDS011;22458;45.328;9.514;2023-03-01T11:40:37;18.63;;;11.77;;
36423;SDS011;22458;45.328;9.514;2023-03-01T12:03:45;19.67;;;14.07;;
36423;SDS011;22458;45.328;9.514;2023-03-01T12:12:19;17.00;;;12.82;;
36423;SDS011;22458;45.328;9.514;2023-03-01T12:45:31;19.63;;;13.45;;
36423;SDS011;22458;45.328;9.514;2023-03-01T12:48:12;20.17;;;13.52;;
36423;SDS011;22458;45.328;9.514;2023-03-01T12:53:20;19.20;;;12.35;;
36423;SDS011;22458;45.328;9.514;2023-03-01T12:55:52;19.45;;;13.80;;
36423;SDS011;22458;45.328;9.514;2023-03-01T12:58:35;19.73;;;14.27;;
36423;SDS011;22458;45.328;9.514;2023-03-01T13:01:36;21.03;;;14.53;;
36423;SDS011;22458;45.328;9.514;2023-03-01T13:04:07;20.75;;;14.23;;
36423;SDS011;22458;45.328;9.514;2023-03-01T13:09:30;19.88;;;13.40;;
36423;SDS011;22458;45.328;9.514;2023-03-01T13:12:00;20.10;;;13.50;;
36423;SDS011;22458;45.328;9.514;2023-03-01T13:16:52;18.67;;;13.15;;
36423;SDS011;22458;45.328;9.514;2023-03-01T13:19:22;21.80;;;13.63;;
36423;SDS011;22458;45.328;9.514;2023-03-01T13:21:50;15.95;;;12.25;;
36423;SDS011;22458;45.328;9.514;2023-03-01T13:32:22;17.67;;;12.98;;
36423;SDS011;22458;45.328;9.514;2023-03-01T13:35:08;19.70;;;13.57;;
36423;SDS011;22458;45.328;9.514;2023-03-01T13:37:51;20.33;;;12.75;;
36423;SDS011;22458;45.328;9.514;2023-03-01T13:42:48;16.55;;;12.18;;
36423;SDS011;22458;45.328;9.514;2023-03-01T13:45:39;17.60;;;12.88;;
36423;SDS011;22458;45.328;9.514;2023-03-01T13:50:45;18.77;;;13.82;;
36423;SDS011;22458;45.328;9.514;2023-03-01T13:53:19;19.52;;;14.65;;
36423;SDS011;22458;45.328;9.514;2023-03-01T13:55:55;18.23;;;14.07;;
36423;SDS011;22458;45.328;9.514;2023-03-01T13:58:30;17.23;;;12.43;;
36423;SDS011;22458;45.328;9.514;2023-03-01T14:01:01;17.95;;;13.35;;
36423;SDS011;22458;45.328;9.514;2023-03-01T14:03:32;19.25;;;13.57;;
36423;SDS011;22458;45.328;9.514;2023-03-01T14:06:07;18.52;;;12.60;;
36423;SDS011;22458;45.328;9.514;2023-03-01T14:08:37;17.88;;;12.73;;
36423;SDS011;22458;45.328;9.514;2023-03-01T14:16:41;19.05;;;13.00;;
36423;SDS011;22458;45.328;9.514;2023-03-01T14:19:25;19.00;;;13.57;;
36423;SDS011;22458;45.328;9.514;2023-03-01T14:22:27;18.95;;;13.45;;
36423;SDS011;22458;45.328;9.514;2023-03-01T14:25:02;20.75;;;14.38;;
36423;SDS011;22458;45.328;9.514;2023-03-01T14:27:41;19.75;;;13.95;;
36423;SDS011;22458;45.328;9.514;2023-03-01T14:30:11;18.40;;;13.98;;
36423;SDS011;22458;45.328;9.514;2023-03-01T14:32:38;19.27;;;12.63;;
36423;SDS011;22458;45.328;9.514;2023-03-01T14:35:18;20.48;;;13.52;;
36423;SDS011;22458;45.328;9.514;2023-03-01T14:37:45;18.75;;;12.88;;
36423;SDS011;22458;45.328;9.514;2023-03-01T14:40:19;20.13;;;13.48;;
36423;SDS011;22458;45.328;9.514;2023-03-01T14:42:48;18.83;;;13.20;;
36423;SDS011;22458;45.328;9.514;2023-03-01T14:45:14;18.02;;;13.25;;
36423;SDS011;22458;45.328;9.514;2023-03-01T14:47:40;17.98;;;12.93;;
36423;SDS011;22458;45.328;9.514;2023-03-01T14:50:15;17.85;;;12.90;;
36423;SDS011;22458;45.328;9.514;2023-03-01T14:52:51;19.17;;;13.02;;
36423;SDS011;22458;45.328;9.514;2023-03-01T14:55:28;17.15;;;12.68;;
36423;SDS011;22458;45.328;9.514;2023-03-01T14:57:58;16.38;;;12.63;;
36423;SDS011;22458;45.328;9.514;2023-03-01T15:00:25;16.48;;;12.23;;
36423;SDS011;22458;45.328;9.514;2023-03-01T15:02:53;18.13;;;12.85;;
36423;SDS011;22458;45.328;9.514;2023-03-01T15:05:31;17.73;;;12.75;;
36423;SDS011;22458;45.328;9.514;2023-03-01T15:07:58;16.60;;;12.23;;
36423;SDS011;22458;45.328;9.514;2023-03-01T15:10:28;19.77;;;12.27;;
36423;SDS011;22458;45.328;9.514;2023-03-01T15:12:56;17.65;;;13.30;;
36423;SDS011;22458;45.328;9.514;2023-03-01T15:15:35;17.80;;;11.63;;
36423;SDS011;22458;45.328;9.514;2023-03-01T15:18:21;18.80;;;12.80;;
36423;SDS011;22458;45.328;9.514;2023-03-01T15:20:51;18.90;;;12.90;;
36423;SDS011;22458;45.328;9.514;2023-03-01T15:25:49;20.65;;;12.52;;
36423;SDS011;22458;45.328;9.514;2023-03-01T15:28:22;19.55;;;12.63;;
36423;SDS011;22458;45.328;9.514;2023-03-01T15:33:44;19.25;;;12.45;;
36423;SDS011;22458;45.328;9.514;2023-03-01T15:39:05;17.55;;;11.77;;
36423;SDS011;22458;45.328;9.514;2023-03-01T15:41:52;18.38;;;11.68;;
36423;SDS011;22458;45.328;9.514;2023-03-01T15:44:28;17.90;;;12.60;;
36423;SDS011;22458;45.328;9.514;2023-03-01T15:46:55;16.38;;;11.73;;
36423;SDS011;22458;45.328;9.514;2023-03-01T15:52:39;17.95;;;11.82;;
36423;SDS011;22458;45.328;9.514;2023-03-01T15:57:48;17.48;;;12.02;;
36423;SDS011;22458;45.328;9.514;2023-03-01T16:00:15;16.35;;;11.70;;
36423;SDS011;22458;45.328;9.514;2023-03-01T16:02:42;18.95;;;12.02;;
36423;SDS011;22458;45.328;9.514;2023-03-01T16:05:15;20.88;;;12.75;;
36423;SDS011;22458;45.328;9.514;2023-03-01T16:07:45;19.33;;;12.55;;
36423;SDS011;22458;45.328;9.514;2023-03-01T16:10:10;19.65;;;11.68;;
36423;SDS011;22458;45.328;9.514;2023-03-01T16:12:36;18.17;;;11.68;;
36423;SDS011;22458;45.328;9.514;2023-03-01T16:15:04;23.02;;;13.48;;
36423;SDS011;22458;45.328;9.514;2023-03-01T16:17:37;19.52;;;12.43;;
36423;SDS011;22458;45.328;9.514;2023-03-01T16:20:03;17.77;;;11.70;;
36423;SDS011;22458;45.328;9.514;2023-03-01T16:22:29;18.08;;;11.90;;
36423;SDS011;22458;45.328;9.514;2023-03-01T16:24:55;18.40;;;11.52;;
36423;SDS011;22458;45.328;9.514;2023-03-01T16:27:21;16.73;;;11.75;;
36423;SDS011;22458;45.328;9.514;2023-03-01T16:29:47;16.38;;;11.48;;
36423;SDS011;22458;45.328;9.514;2023-03-01T16:32:13;20.95;;;12.77;;
36423;SDS011;22458;45.328;9.514;2023-03-01T16:34:39;17.73;;;12.30;;
36423;SDS011;22458;45.328;9.514;2023-03-01T16:37:04;17.63;;;12.05;;
36423;SDS011;22458;45.328;9.514;2023-03-01T16:39:30;19.02;;;12.15;;
36423;SDS011;22458;45.328;9.514;2023-03-01T16:41:56;16.67;;;11.57;;
36423;SDS011;22458;45.328;9.514;2023-03-01T16:44:24;15.90;;;11.75;;
36423;SDS011;22458;45.328;9.514;2023-03-01T16:46:50;15.68;;;12.05;;
36423;SDS011;22458;45.328;9.514;2023-03-01T16:49:16;18.17;;;12.77;;
36423;SDS011;22458;45.328;9.514;2023-03-01T16:51:42;17.88;;;11.73;;
36423;SDS011;22458;45.328;9.514;2023-03-01T16:54:08;18.58;;;12.93;;
36423;SDS011;22458;45.328;9.514;2023-03-01T16:56:34;17.33;;;12.70;;
36423;SDS011;22458;45.328;9.514;2023-03-01T16:59:02;18.83;;;12.35;;
36423;SDS011;22458;45.328;9.514;2023-03-01T17:01:28;18.13;;;11.88;;
36423;SDS011;22458;45.328;9.514;2023-03-01T17:06:23;20.10;;;12.95;;
36423;SDS011;22458;45.328;9.514;2023-03-01T17:08:51;18.40;;;12.07;;